Time,TemperatureF,DewpointF,PressureIn,WindDirection,WindDirectionDegrees,WindSpeedMPH,WindSpeedGustMPH,Humidity,HourlyPrecipIn,Conditions,Clouds,dailyrainin,SoftwareType,DateUTC
2013-01-16 00:00:00,34.9,30.0,30.22,NNW,333,0.0,2.0,82,0.00,,,0.13,meteohub,2013-01-16 05:00:00,
2013-01-16 00:07:00,34.7,29.8,30.21,NNW,333,0.0,1.0,82,0.00,,,0.00,meteohub,2013-01-16 05:07:00,
2013-01-16 00:12:00,34.5,29.8,30.22,NNW,333,0.0,1.0,83,0.00,,,0.00,meteohub,2013-01-16 05:12:00,
2013-01-16 00:15:00,34.3,29.7,30.22,NNW,333,0.0,1.0,83,0.00,,,0.00,meteohub,2013-01-16 05:15:00,
2013-01-16 00:20:00,34.3,30.4,30.23,ESE,115,0.0,0.0,85,0.00,,,0.00,meteohub,2013-01-16 05:20:00,
2013-01-16 00:25:00,34.2,30.4,30.22,NNE,27,0.0,1.0,86,0.00,,,0.00,meteohub,2013-01-16 05:25:00,
2013-01-16 00:30:00,33.8,30.0,30.22,East,83,1.0,1.0,86,0.00,,,0.00,meteohub,2013-01-16 05:30:00,
2013-01-16 00:35:00,33.4,30.0,30.21,ENE,78,0.0,1.0,87,0.00,,,0.00,meteohub,2013-01-16 05:35:00,
2013-01-16 00:40:00,33.4,30.2,30.21,NW,316,0.0,1.0,88,0.00,,,0.00,meteohub,2013-01-16 05:40:00,
2013-01-16 00:45:00,33.1,30.2,30.21,North,349,0.0,1.0,89,0.00,,,0.00,meteohub,2013-01-16 05:45:00,
2013-01-16 00:50:00,32.9,30.0,30.21,NW,324,0.0,1.0,89,0.00,,,0.00,meteohub,2013-01-16 05:50:00,
2013-01-16 00:55:00,32.7,30.2,30.21,SE,140,0.0,1.0,90,0.00,,,0.00,meteohub,2013-01-16 05:55:00,
2013-01-16 01:00:00,32.5,30.0,30.21,SE,141,0.0,2.0,90,0.00,,,0.00,meteohub,2013-01-16 06:00:00,
2013-01-16 01:05:00,32.5,30.2,30.21,East,79,0.0,2.0,91,0.00,,,0.00,meteohub,2013-01-16 06:05:00,
2013-01-16 01:10:00,32.5,30.2,30.21,North,352,0.0,2.0,91,0.00,,,0.00,meteohub,2013-01-16 06:10:00,
2013-01-16 01:15:00,32.4,30.0,30.20,East,86,1.0,3.0,91,0.00,,,0.00,meteohub,2013-01-16 06:15:00,
2013-01-16 01:20:00,32.4,30.4,30.20,East,85,0.0,3.0,92,0.00,,,0.00,meteohub,2013-01-16 06:20:00,
2013-01-16 01:25:00,32.4,30.4,30.19,ENE,69,1.0,3.0,92,0.00,,,0.00,meteohub,2013-01-16 06:25:00,
2013-01-16 01:30:00,32.2,30.2,30.18,East,99,0.0,5.0,92,0.00,,,0.00,meteohub,2013-01-16 06:30:00,
2013-01-16 01:35:00,32.2,30.2,30.18,North,357,0.0,5.0,92,0.00,,,0.00,meteohub,2013-01-16 06:35:00,
2013-01-16 01:40:00,32.2,30.4,30.19,NNW,344,0.0,5.0,93,0.00,,,0.00,meteohub,2013-01-16 06:40:00,
2013-01-16 01:45:00,32.2,30.4,30.17,East,82,0.0,3.0,93,0.00,,,0.00,meteohub,2013-01-16 06:45:00,
2013-01-16 01:50:00,32.2,30.4,30.17,East,92,0.0,3.0,93,0.00,,,0.00,meteohub,2013-01-16 06:50:00,
2013-01-16 01:55:00,32.2,30.4,30.17,East,94,2.0,3.0,93,0.00,,,0.00,meteohub,2013-01-16 06:55:00,
2013-01-16 02:00:00,32.2,30.4,30.17,East,94,0.0,3.0,93,0.00,,,0.00,meteohub,2013-01-16 07:00:00,
2013-01-16 02:05:00,32.2,30.4,30.17,East,81,1.0,3.0,93,0.00,,,0.00,meteohub,2013-01-16 07:05:00,
2013-01-16 02:10:00,32.2,30.4,30.18,NNE,32,0.0,3.0,93,0.00,,,0.00,meteohub,2013-01-16 07:10:00,
2013-01-16 02:15:00,32.2,30.4,30.17,NNW,330,0.0,2.0,93,0.00,,,0.00,meteohub,2013-01-16 07:15:00,
2013-01-16 02:20:00,32.2,30.4,30.17,East,92,1.0,2.0,93,0.00,,,0.00,meteohub,2013-01-16 07:20:00,
2013-01-16 02:25:00,32.2,30.4,30.17,NE,39,0.0,3.0,93,0.00,,,0.00,meteohub,2013-01-16 07:25:00,
2013-01-16 02:30:00,32.4,30.7,30.17,ENE,75,0.0,3.0,94,0.00,,,0.00,meteohub,2013-01-16 07:30:00,
2013-01-16 02:36:00,32.4,30.7,30.17,East,96,0.0,2.0,94,0.00,,,0.00,meteohub,2013-01-16 07:36:00,
2013-01-16 02:41:00,32.4,30.7,30.17,East,96,0.0,2.0,94,0.00,,,0.00,meteohub,2013-01-16 07:41:00,
2013-01-16 02:46:00,32.4,30.7,30.17,East,90,0.0,1.0,94,0.00,,,0.00,meteohub,2013-01-16 07:46:00,
2013-01-16 02:51:00,32.4,30.7,30.17,ESE,104,0.0,1.0,94,0.00,,,0.00,meteohub,2013-01-16 07:51:00,
2013-01-16 02:56:00,32.4,30.7,30.16,East,98,1.0,1.0,94,0.00,,,0.00,meteohub,2013-01-16 07:56:00,
2013-01-16 03:01:00,32.4,30.7,30.16,East,88,0.0,2.0,94,0.00,,,0.00,meteohub,2013-01-16 08:01:00,
2013-01-16 03:06:00,32.4,30.7,30.15,East,93,1.0,2.0,94,0.00,,,0.00,meteohub,2013-01-16 08:06:00,
2013-01-16 03:11:00,32.5,30.9,30.15,ENE,66,0.0,2.0,94,0.00,,,0.00,meteohub,2013-01-16 08:11:00,
2013-01-16 03:16:00,32.5,30.9,30.15,East,88,2.0,2.0,94,0.00,,,0.00,meteohub,2013-01-16 08:16:00,
2013-01-16 03:21:00,32.4,30.7,30.14,ENE,57,0.0,3.0,94,0.00,,,0.00,meteohub,2013-01-16 08:21:00,
2013-01-16 03:26:00,32.4,30.7,30.13,East,95,1.0,4.0,94,0.01,,,0.01,meteohub,2013-01-16 08:26:00,
2013-01-16 03:31:00,32.4,30.7,30.13,WSW,249,0.0,4.0,94,0.02,,,0.02,meteohub,2013-01-16 08:31:00,
2013-01-16 03:36:00,32.4,30.7,30.13,ENE,77,1.0,4.0,94,0.02,,,0.02,meteohub,2013-01-16 08:36:00,
2013-01-16 03:41:00,32.4,30.7,30.12,ENE,57,0.0,4.0,94,0.03,,,0.03,meteohub,2013-01-16 08:41:00,
2013-01-16 03:46:00,32.4,30.7,30.12,North,3,0.0,2.0,94,0.03,,,0.03,meteohub,2013-01-16 08:46:00,
2013-01-16 03:51:00,32.4,30.7,30.10,ENE,57,2.0,2.0,94,0.04,,,0.04,meteohub,2013-01-16 08:51:00,
2013-01-16 03:56:00,32.4,30.7,30.11,ENE,77,0.0,4.0,94,0.04,,,0.04,meteohub,2013-01-16 08:56:00,
2013-01-16 04:01:00,32.4,30.7,30.12,SSE,153,0.0,4.0,94,0.04,,,0.04,meteohub,2013-01-16 09:01:00,
2013-01-16 04:06:00,32.4,30.7,30.11,WSW,242,0.0,4.0,94,0.05,,,0.05,meteohub,2013-01-16 09:06:00,
2013-01-16 04:11:00,32.4,30.7,30.12,East,86,0.0,1.0,94,0.06,,,0.06,meteohub,2013-01-16 09:11:00,
2013-01-16 04:16:00,32.4,30.7,30.12,East,86,0.0,1.0,94,0.06,,,0.06,meteohub,2013-01-16 09:16:00,
2013-01-16 04:21:00,32.4,30.7,30.12,East,85,0.0,1.0,94,0.05,,,0.06,meteohub,2013-01-16 09:21:00,
2013-01-16 04:26:00,32.4,30.7,30.12,East,84,0.0,0.0,94,0.06,,,0.07,meteohub,2013-01-16 09:26:00,
2013-01-16 04:31:00,32.4,30.7,30.10,ESE,105,0.0,0.0,94,0.05,,,0.07,meteohub,2013-01-16 09:31:00,
2013-01-16 04:36:00,32.4,30.7,30.10,East,81,0.0,0.0,94,0.05,,,0.07,meteohub,2013-01-16 09:36:00,
2013-01-16 04:41:00,32.4,31.1,30.09,ESE,108,0.0,0.0,95,0.04,,,0.07,meteohub,2013-01-16 09:41:00,
2013-01-16 04:46:00,32.4,31.1,30.09,ESE,103,0.0,0.0,95,0.04,,,0.07,meteohub,2013-01-16 09:46:00,
2013-01-16 04:51:00,32.2,30.9,30.10,West,261,0.0,1.0,95,0.03,,,0.07,meteohub,2013-01-16 09:51:00,
2013-01-16 04:56:00,32.2,30.9,30.11,ENE,70,0.0,2.0,95,0.03,,,0.07,meteohub,2013-01-16 09:56:00,
2013-01-16 05:01:00,32.2,30.9,30.11,SSW,207,0.0,2.0,95,0.02,,,0.07,meteohub,2013-01-16 10:01:00,
2013-01-16 05:06:00,32.2,30.9,30.11,ENE,60,0.0,2.0,95,0.02,,,0.07,meteohub,2013-01-16 10:06:00,
2013-01-16 05:11:00,32.0,30.7,30.10,ENE,76,1.0,2.0,95,0.01,,,0.07,meteohub,2013-01-16 10:11:00,
2013-01-16 05:16:00,32.0,30.7,30.09,ENE,70,0.0,2.0,95,0.02,,,0.08,meteohub,2013-01-16 10:16:00,
2013-01-16 05:21:00,32.0,30.7,30.09,East,96,0.0,2.0,95,0.02,,,0.08,meteohub,2013-01-16 10:21:00,
2013-01-16 05:26:00,32.0,30.7,30.08,East,97,0.0,2.0,95,0.01,,,0.08,meteohub,2013-01-16 10:26:00,
2013-01-16 05:31:00,32.0,30.7,30.08,East,96,0.0,2.0,95,0.01,,,0.08,meteohub,2013-01-16 10:31:00,
2013-01-16 05:36:00,32.0,30.7,30.08,East,98,0.0,1.0,95,0.01,,,0.08,meteohub,2013-01-16 10:36:00,
2013-01-16 05:41:00,32.0,30.7,30.08,ESE,110,0.0,1.0,95,0.01,,,0.08,meteohub,2013-01-16 10:41:00,
2013-01-16 05:46:00,32.0,30.7,30.08,East,90,0.0,0.0,95,0.01,,,0.08,meteohub,2013-01-16 10:46:00,
2013-01-16 05:51:00,32.0,30.7,30.07,East,90,0.0,1.0,95,0.01,,,0.08,meteohub,2013-01-16 10:51:00,
2013-01-16 05:56:00,32.0,30.7,30.07,East,90,0.0,1.0,95,0.01,,,0.08,meteohub,2013-01-16 10:56:00,
2013-01-16 06:01:00,32.2,30.9,30.07,East,86,0.0,1.0,95,0.01,,,0.08,meteohub,2013-01-16 11:01:00,
2013-01-16 06:06:00,32.2,30.9,30.07,East,84,0.0,1.0,95,0.01,,,0.08,meteohub,2013-01-16 11:06:00,
2013-01-16 06:11:00,32.2,30.9,30.06,East,86,0.0,1.0,95,0.01,,,0.08,meteohub,2013-01-16 11:11:00,
2013-01-16 06:16:00,32.2,30.9,30.06,East,93,0.0,1.0,95,0.00,,,0.08,meteohub,2013-01-16 11:16:00,
2013-01-16 06:21:00,32.4,31.1,30.06,East,94,0.0,3.0,95,0.00,,,0.08,meteohub,2013-01-16 11:21:00,
2013-01-16 06:26:00,32.4,31.1,30.06,East,94,0.0,3.0,95,0.00,,,0.08,meteohub,2013-01-16 11:26:00,
2013-01-16 06:31:00,32.4,31.1,30.06,East,91,0.0,1.0,95,0.00,,,0.08,meteohub,2013-01-16 11:31:00,
2013-01-16 06:36:00,32.5,31.3,30.06,ENE,75,0.0,1.0,95,0.00,,,0.08,meteohub,2013-01-16 11:36:00,
2013-01-16 06:41:00,32.5,31.3,30.06,ENE,75,0.0,1.0,95,0.00,,,0.08,meteohub,2013-01-16 11:41:00,
2013-01-16 06:46:00,32.5,31.3,30.06,ENE,75,0.0,1.0,95,0.00,,,0.08,meteohub,2013-01-16 11:46:00,
2013-01-16 06:51:00,32.5,31.3,30.06,ENE,75,0.0,0.0,95,0.00,,,0.08,meteohub,2013-01-16 11:51:00,
2013-01-16 06:56:00,32.5,31.3,30.06,ENE,75,0.0,0.0,95,0.00,,,0.08,meteohub,2013-01-16 11:56:00,
2013-01-16 07:01:00,32.5,31.5,30.06,ENE,75,0.0,0.0,96,0.00,,,0.08,meteohub,2013-01-16 12:01:00,
2013-01-16 07:06:00,32.5,31.5,30.06,ENE,75,0.0,0.0,96,0.00,,,0.08,meteohub,2013-01-16 12:06:00,
2013-01-16 07:11:00,32.5,31.5,30.06,East,87,0.0,1.0,96,0.00,,,0.08,meteohub,2013-01-16 12:11:00,
2013-01-16 07:16:00,32.5,31.5,30.06,East,88,0.0,1.0,96,0.00,,,0.08,meteohub,2013-01-16 12:16:00,
2013-01-16 07:21:00,32.5,31.5,30.06,East,87,0.0,0.0,96,0.00,,,0.08,meteohub,2013-01-16 12:21:00,
2013-01-16 07:26:00,32.7,31.6,30.06,East,88,0.0,0.0,96,0.01,,,0.09,meteohub,2013-01-16 12:26:00,
2013-01-16 07:32:00,32.7,31.6,30.05,East,86,0.0,0.0,96,0.01,,,0.09,meteohub,2013-01-16 12:32:00,
2013-01-16 07:37:00,32.7,31.6,30.05,East,86,0.0,0.0,96,0.01,,,0.09,meteohub,2013-01-16 12:37:00,
2013-01-16 07:42:00,32.7,31.6,30.05,East,86,0.0,0.0,96,0.01,,,0.09,meteohub,2013-01-16 12:42:00,
2013-01-16 07:47:00,32.7,31.6,30.05,East,86,0.0,0.0,96,0.01,,,0.09,meteohub,2013-01-16 12:47:00,
2013-01-16 07:52:00,32.7,31.6,30.04,East,86,0.0,0.0,96,0.01,,,0.09,meteohub,2013-01-16 12:52:00,
2013-01-16 07:57:00,32.7,31.6,30.04,East,86,0.0,0.0,96,0.01,,,0.09,meteohub,2013-01-16 12:57:00,
2013-01-16 08:02:00,32.9,31.8,30.03,East,86,0.0,0.0,96,0.01,,,0.09,meteohub,2013-01-16 13:02:00,
2013-01-16 08:07:00,32.9,31.8,30.04,North,349,0.0,0.0,96,0.01,,,0.09,meteohub,2013-01-16 13:07:00,
2013-01-16 08:12:00,32.9,31.8,30.04,North,349,0.0,0.0,96,0.02,,,0.10,meteohub,2013-01-16 13:12:00,
2013-01-16 08:17:00,32.9,31.8,30.03,ESE,121,0.0,0.0,96,0.02,,,0.10,meteohub,2013-01-16 13:17:00,
2013-01-16 08:22:00,32.9,31.8,30.03,ESE,121,0.0,0.0,96,0.02,,,0.10,meteohub,2013-01-16 13:22:00,
2013-01-16 08:27:00,32.9,31.8,30.03,ESE,123,0.0,0.0,96,0.01,,,0.10,meteohub,2013-01-16 13:27:00,
2013-01-16 08:32:00,32.9,31.8,30.03,ESE,122,0.0,0.0,96,0.01,,,0.10,meteohub,2013-01-16 13:32:00,
2013-01-16 08:37:00,33.1,32.0,30.03,NNW,333,0.0,0.0,96,0.02,,,0.11,meteohub,2013-01-16 13:37:00,
2013-01-16 08:42:00,33.1,32.0,30.01,East,79,0.0,0.0,96,0.02,,,0.11,meteohub,2013-01-16 13:42:00,
2013-01-16 08:47:00,33.1,32.0,30.00,East,79,0.0,0.0,96,0.02,,,0.11,meteohub,2013-01-16 13:47:00,
2013-01-16 08:52:00,33.1,32.0,29.98,East,80,0.0,0.0,96,0.02,,,0.11,meteohub,2013-01-16 13:52:00,
2013-01-16 08:57:00,33.1,32.0,29.98,East,81,0.0,0.0,96,0.02,,,0.11,meteohub,2013-01-16 13:57:00,
2013-01-16 09:01:00,33.1,32.0,29.96,ENE,77,0.0,0.0,96,0.02,,,0.11,meteohub,2013-01-16 14:01:00,
2013-01-16 09:07:00,33.1,32.0,29.98,NW,311,0.0,0.0,96,0.02,,,0.11,meteohub,2013-01-16 14:07:00,
2013-01-16 09:12:00,33.1,32.0,29.99,NW,311,0.0,0.0,96,0.01,,,0.11,meteohub,2013-01-16 14:12:00,
2013-01-16 09:16:00,33.1,32.0,29.98,ENE,67,0.0,0.0,96,0.01,,,0.11,meteohub,2013-01-16 14:16:00,
2013-01-16 09:22:00,33.3,32.2,29.97,ENE,66,0.0,0.0,96,0.01,,,0.11,meteohub,2013-01-16 14:22:00,
2013-01-16 09:27:00,33.3,32.2,29.96,East,84,0.0,1.0,96,0.01,,,0.11,meteohub,2013-01-16 14:27:00,
2013-01-16 09:31:00,33.3,32.2,29.96,ESE,104,0.0,2.0,96,0.01,,,0.11,meteohub,2013-01-16 14:31:00,
2013-01-16 09:36:00,33.3,32.2,29.95,ENE,75,1.0,2.0,96,0.00,,,0.11,meteohub,2013-01-16 14:36:00,
2013-01-16 09:42:00,33.3,32.2,29.94,ENE,58,0.0,3.0,96,0.01,,,0.12,meteohub,2013-01-16 14:42:00,
2013-01-16 09:47:00,33.3,32.2,29.94,East,97,0.0,3.0,96,0.01,,,0.12,meteohub,2013-01-16 14:47:00,
2013-01-16 09:52:00,33.3,32.2,29.95,East,97,0.0,3.0,96,0.01,,,0.12,meteohub,2013-01-16 14:52:00,
2013-01-16 09:57:00,33.3,32.2,29.95,WSW,252,0.0,3.0,96,0.01,,,0.12,meteohub,2013-01-16 14:57:00,
2013-01-16 10:02:00,33.3,32.2,29.95,East,83,0.0,3.0,96,0.01,,,0.12,meteohub,2013-01-16 15:02:00,
2013-01-16 10:07:00,33.3,32.2,29.96,East,83,0.0,3.0,96,0.01,,,0.12,meteohub,2013-01-16 15:07:00,
2013-01-16 10:12:00,33.3,32.2,29.97,East,83,0.0,3.0,96,0.01,,,0.12,meteohub,2013-01-16 15:12:00,
2013-01-16 10:17:00,33.3,32.2,29.97,East,83,0.0,0.0,96,0.01,,,0.12,meteohub,2013-01-16 15:17:00,
2013-01-16 10:22:00,33.3,32.2,29.97,East,83,0.0,0.0,96,0.01,,,0.12,meteohub,2013-01-16 15:22:00,
2013-01-16 10:27:00,33.3,32.2,29.98,East,83,0.0,0.0,96,0.01,,,0.12,meteohub,2013-01-16 15:27:00,
2013-01-16 10:32:00,33.4,32.4,29.98,East,83,0.0,0.0,96,0.01,,,0.12,meteohub,2013-01-16 15:32:00,
2013-01-16 10:37:00,33.3,32.2,29.97,East,83,0.0,0.0,96,0.01,,,0.12,meteohub,2013-01-16 15:37:00,
2013-01-16 10:42:00,33.4,32.4,29.97,East,83,0.0,0.0,96,0.00,,,0.12,meteohub,2013-01-16 15:42:00,
2013-01-16 10:47:00,33.4,32.4,29.96,East,83,0.0,0.0,96,0.00,,,0.12,meteohub,2013-01-16 15:47:00,
2013-01-16 10:52:00,33.4,32.4,29.96,East,84,0.0,0.0,96,0.00,,,0.12,meteohub,2013-01-16 15:52:00,
2013-01-16 10:57:00,33.4,32.4,29.96,East,83,0.0,0.0,96,0.00,,,0.12,meteohub,2013-01-16 15:57:00,
2013-01-16 11:02:00,33.4,32.4,29.96,East,83,0.0,0.0,96,0.00,,,0.12,meteohub,2013-01-16 16:02:00,
2013-01-16 11:07:00,33.4,32.4,29.96,East,83,0.0,0.0,96,0.00,,,0.12,meteohub,2013-01-16 16:07:00,
2013-01-16 11:12:00,33.4,32.4,29.96,East,83,0.0,1.0,96,0.00,,,0.12,meteohub,2013-01-16 16:12:00,
2013-01-16 11:17:00,33.4,32.4,29.95,East,83,0.0,1.0,96,0.00,,,0.12,meteohub,2013-01-16 16:17:00,
2013-01-16 11:22:00,33.4,32.4,29.94,East,83,0.0,0.0,96,0.00,,,0.12,meteohub,2013-01-16 16:22:00,
2013-01-16 11:27:00,33.4,32.4,29.94,East,83,0.0,0.0,96,0.00,,,0.12,meteohub,2013-01-16 16:27:00,
2013-01-16 11:32:00,33.4,32.4,29.94,East,83,0.0,0.0,96,0.00,,,0.12,meteohub,2013-01-16 16:32:00,
2013-01-16 11:37:00,33.4,32.4,29.95,East,83,0.0,0.0,96,0.00,,,0.12,meteohub,2013-01-16 16:37:00,
2013-01-16 11:42:00,33.4,32.4,29.94,East,83,0.0,0.0,96,0.00,,,0.12,meteohub,2013-01-16 16:42:00,
2013-01-16 11:47:00,33.4,32.4,29.94,East,83,0.0,0.0,96,0.00,,,0.12,meteohub,2013-01-16 16:47:00,
2013-01-16 11:52:00,33.4,32.4,29.93,NE,55,0.0,0.0,96,0.00,,,0.12,meteohub,2013-01-16 16:52:00,
2013-01-16 11:57:00,33.3,32.2,29.93,NE,56,0.0,0.0,96,0.01,,,0.13,meteohub,2013-01-16 16:57:00,
2013-01-16 12:02:00,33.3,32.2,29.93,NE,55,0.0,0.0,96,0.01,,,0.13,meteohub,2013-01-16 17:02:00,
2013-01-16 12:07:00,33.3,32.2,29.93,NE,56,0.0,0.0,96,0.01,,,0.13,meteohub,2013-01-16 17:07:00,
2013-01-16 12:12:00,33.3,32.2,29.93,NE,56,0.0,0.0,96,0.01,,,0.13,meteohub,2013-01-16 17:12:00,
2013-01-16 12:17:00,33.3,32.2,29.93,NE,56,0.0,0.0,96,0.01,,,0.13,meteohub,2013-01-16 17:17:00,
2013-01-16 12:22:00,33.3,32.2,29.91,ESE,111,0.0,0.0,96,0.01,,,0.13,meteohub,2013-01-16 17:22:00,
2013-01-16 12:27:00,33.3,32.2,29.90,ESE,111,0.0,0.0,96,0.01,,,0.13,meteohub,2013-01-16 17:27:00,
2013-01-16 12:32:00,33.3,32.2,29.87,ESE,112,0.0,0.0,96,0.01,,,0.13,meteohub,2013-01-16 17:32:00,
2013-01-16 12:37:00,33.3,32.2,29.87,ESE,111,0.0,0.0,96,0.01,,,0.13,meteohub,2013-01-16 17:37:00,
2013-01-16 12:42:00,33.3,32.2,29.87,ESE,111,0.0,0.0,96,0.01,,,0.13,meteohub,2013-01-16 17:42:00,
2013-01-16 12:47:00,33.3,32.2,29.91,WSW,249,0.0,0.0,96,0.01,,,0.13,meteohub,2013-01-16 17:47:00,
2013-01-16 12:52:00,33.3,32.2,29.90,WSW,248,0.0,0.0,96,0.00,,,0.13,meteohub,2013-01-16 17:52:00,
2013-01-16 12:57:00,33.3,32.2,29.88,SSE,150,0.0,0.0,96,0.00,,,0.13,meteohub,2013-01-16 17:57:00,
2013-01-16 13:02:00,33.3,32.2,29.86,SE,124,0.0,0.0,96,0.00,,,0.13,meteohub,2013-01-16 18:02:00,
2013-01-16 13:07:00,33.3,32.2,29.83,SE,124,0.0,0.0,96,0.01,,,0.14,meteohub,2013-01-16 18:07:00,
2013-01-16 13:12:00,33.3,32.2,29.81,East,84,0.0,0.0,96,0.01,,,0.14,meteohub,2013-01-16 18:12:00,
2013-01-16 13:17:00,33.3,32.2,29.81,East,83,1.0,2.0,96,0.01,,,0.14,meteohub,2013-01-16 18:17:00,
2013-01-16 13:22:00,33.3,32.2,29.83,East,84,0.0,2.0,96,0.01,,,0.14,meteohub,2013-01-16 18:22:00,
2013-01-16 13:27:00,33.3,32.2,29.81,East,84,0.0,1.0,96,0.01,,,0.14,meteohub,2013-01-16 18:27:00,
2013-01-16 13:32:00,33.3,32.2,29.79,East,83,0.0,2.0,96,0.01,,,0.14,meteohub,2013-01-16 18:32:00,
2013-01-16 13:37:00,33.3,32.2,29.81,East,84,0.0,2.0,96,0.01,,,0.14,meteohub,2013-01-16 18:37:00,
2013-01-16 13:42:00,33.3,32.5,29.86,West,274,0.0,2.0,97,0.01,,,0.14,meteohub,2013-01-16 18:42:00,
2013-01-16 13:47:00,33.4,32.7,29.84,WSW,250,0.0,1.0,97,0.01,,,0.14,meteohub,2013-01-16 18:47:00,
2013-01-16 13:52:00,33.4,32.7,29.83,WSW,249,0.0,1.0,97,0.01,,,0.14,meteohub,2013-01-16 18:52:00,
2013-01-16 13:57:00,33.4,32.7,29.83,WSW,248,0.0,1.0,97,0.01,,,0.14,meteohub,2013-01-16 18:57:00,
2013-01-16 14:02:00,33.6,32.9,29.87,WNW,301,0.0,0.0,97,0.01,,,0.14,meteohub,2013-01-16 19:02:00,
2013-01-16 14:07:00,33.6,32.9,29.86,WSW,252,0.0,0.0,97,0.00,,,0.14,meteohub,2013-01-16 19:07:00,
2013-01-16 14:12:00,33.6,32.9,29.85,West,262,0.0,2.0,97,0.00,,,0.14,meteohub,2013-01-16 19:12:00,
2013-01-16 14:17:00,33.6,32.9,29.86,West,261,0.0,2.0,97,0.01,,,0.15,meteohub,2013-01-16 19:17:00,
2013-01-16 14:22:00,33.6,32.9,29.88,WSW,242,1.0,0.0,97,0.01,,,0.15,meteohub,2013-01-16 19:22:00,
2013-01-16 14:27:00,33.6,32.9,29.88,WSW,251,0.0,2.0,97,0.01,,,0.15,meteohub,2013-01-16 19:27:00,
2013-01-16 14:32:00,33.6,32.9,29.89,WSW,239,0.0,2.0,97,0.01,,,0.15,meteohub,2013-01-16 19:32:00,
2013-01-16 14:37:00,33.6,32.9,29.89,WSW,252,0.0,2.0,97,0.01,,,0.15,meteohub,2013-01-16 19:37:00,
2013-01-16 14:42:00,33.6,32.9,29.88,WSW,256,0.0,2.0,97,0.01,,,0.15,meteohub,2013-01-16 19:42:00,
2013-01-16 14:47:00,33.6,32.9,29.87,East,86,0.0,2.0,97,0.01,,,0.15,meteohub,2013-01-16 19:47:00,
2013-01-16 14:52:00,33.6,32.9,29.88,WSW,241,0.0,2.0,97,0.01,,,0.15,meteohub,2013-01-16 19:52:00,
2013-01-16 14:57:00,33.6,32.9,29.88,WSW,242,0.0,1.0,97,0.01,,,0.15,meteohub,2013-01-16 19:57:00,
2013-01-16 15:01:00,33.6,32.9,29.87,WSW,242,0.0,1.0,97,0.01,,,0.15,meteohub,2013-01-16 20:01:00,
2013-01-16 15:06:00,33.6,32.9,29.86,WSW,239,0.0,0.0,97,0.01,,,0.15,meteohub,2013-01-16 20:06:00,
2013-01-16 15:11:00,33.6,32.9,29.86,WSW,239,0.0,0.0,97,0.01,,,0.15,meteohub,2013-01-16 20:11:00,
2013-01-16 15:16:00,33.6,32.9,29.87,WSW,239,0.0,0.0,97,0.01,,,0.16,meteohub,2013-01-16 20:16:00,
2013-01-16 15:21:00,33.6,32.9,29.87,WSW,239,0.0,0.0,97,0.01,,,0.16,meteohub,2013-01-16 20:21:00,
2013-01-16 15:26:00,33.6,32.9,29.88,WSW,239,0.0,0.0,97,0.01,,,0.16,meteohub,2013-01-16 20:26:00,
2013-01-16 15:31:00,33.6,32.9,29.86,WSW,239,0.0,0.0,97,0.01,,,0.16,meteohub,2013-01-16 20:31:00,
2013-01-16 15:36:00,33.8,33.1,29.86,WSW,239,0.0,0.0,97,0.01,,,0.16,meteohub,2013-01-16 20:36:00,
2013-01-16 15:41:00,33.6,32.9,29.87,WSW,239,0.0,0.0,97,0.01,,,0.16,meteohub,2013-01-16 20:41:00,
2013-01-16 15:46:00,33.6,32.9,29.87,WSW,239,1.0,0.0,97,0.01,,,0.16,meteohub,2013-01-16 20:46:00,
2013-01-16 15:51:00,33.6,32.9,29.89,SW,231,1.0,1.0,97,0.01,,,0.16,meteohub,2013-01-16 20:51:00,
2013-01-16 15:56:00,33.6,32.9,29.89,WSW,241,0.0,1.0,97,0.01,,,0.16,meteohub,2013-01-16 20:56:00,
2013-01-16 16:01:00,33.6,32.9,29.89,WSW,241,0.0,1.0,97,0.01,,,0.16,meteohub,2013-01-16 21:01:00,
2013-01-16 16:07:00,33.6,32.9,29.88,ENE,68,0.0,1.0,97,0.01,,,0.16,meteohub,2013-01-16 21:07:00,
2013-01-16 16:12:00,33.6,32.9,29.87,ENE,68,0.0,1.0,97,0.01,,,0.16,meteohub,2013-01-16 21:12:00,
2013-01-16 16:17:00,33.6,32.9,29.87,ENE,75,0.0,1.0,97,0.00,,,0.16,meteohub,2013-01-16 21:17:00,
2013-01-16 16:22:00,33.6,32.9,29.87,ENE,75,0.0,1.0,97,0.00,,,0.16,meteohub,2013-01-16 21:22:00,
2013-01-16 16:27:00,33.6,32.9,29.87,ENE,75,0.0,1.0,97,0.01,,,0.17,meteohub,2013-01-16 21:27:00,
2013-01-16 16:32:00,33.6,32.9,29.88,ENE,75,0.0,0.0,97,0.01,,,0.17,meteohub,2013-01-16 21:32:00,
2013-01-16 16:37:00,33.6,32.9,29.88,ENE,75,0.0,0.0,97,0.01,,,0.17,meteohub,2013-01-16 21:37:00,
2013-01-16 16:42:00,33.6,32.9,29.89,ENE,75,0.0,0.0,97,0.01,,,0.17,meteohub,2013-01-16 21:42:00,
2013-01-16 16:47:00,33.6,32.9,29.89,ENE,75,0.0,0.0,97,0.01,,,0.17,meteohub,2013-01-16 21:47:00,
2013-01-16 16:52:00,33.6,32.9,29.89,ENE,75,0.0,1.0,97,0.01,,,0.17,meteohub,2013-01-16 21:52:00,
2013-01-16 16:57:00,33.4,32.7,29.89,ENE,75,0.0,1.0,97,0.01,,,0.17,meteohub,2013-01-16 21:57:00,
2013-01-16 17:02:00,33.4,32.7,29.89,ENE,75,0.0,0.0,97,0.01,,,0.17,meteohub,2013-01-16 22:02:00,
2013-01-16 17:07:00,33.4,32.7,29.88,ENE,75,0.0,0.0,97,0.01,,,0.17,meteohub,2013-01-16 22:07:00,
2013-01-16 17:12:00,33.4,32.7,29.86,ENE,75,0.0,0.0,97,0.01,,,0.17,meteohub,2013-01-16 22:12:00,
2013-01-16 17:17:00,33.4,32.7,29.89,ENE,74,0.0,0.0,97,0.01,,,0.17,meteohub,2013-01-16 22:17:00,
2013-01-16 17:22:00,33.4,32.7,29.89,ENE,74,0.0,0.0,97,0.01,,,0.17,meteohub,2013-01-16 22:22:00,
2013-01-16 17:27:00,33.4,32.7,29.89,ENE,73,0.0,0.0,97,0.00,,,0.17,meteohub,2013-01-16 22:27:00,
2013-01-16 17:32:00,33.4,32.7,29.89,ENE,73,0.0,0.0,97,0.00,,,0.17,meteohub,2013-01-16 22:32:00,
2013-01-16 17:37:00,33.6,32.9,29.90,ENE,75,0.0,0.0,97,0.00,,,0.17,meteohub,2013-01-16 22:37:00,
2013-01-16 17:42:00,33.6,32.9,29.90,ENE,75,0.0,0.0,97,0.01,,,0.18,meteohub,2013-01-16 22:42:00,
2013-01-16 17:47:00,33.6,32.9,29.89,ENE,75,0.0,0.0,97,0.01,,,0.18,meteohub,2013-01-16 22:47:00,
2013-01-16 17:52:00,33.6,32.9,29.89,ENE,75,0.0,0.0,97,0.01,,,0.18,meteohub,2013-01-16 22:52:00,
2013-01-16 17:57:00,33.6,32.9,29.89,ENE,74,0.0,0.0,97,0.01,,,0.18,meteohub,2013-01-16 22:57:00,
2013-01-16 18:02:00,33.6,32.9,29.89,ENE,73,0.0,0.0,97,0.01,,,0.18,meteohub,2013-01-16 23:02:00,
2013-01-16 18:07:00,33.6,32.9,29.89,ENE,74,0.0,0.0,97,0.01,,,0.18,meteohub,2013-01-16 23:07:00,
2013-01-16 18:12:00,33.8,33.1,29.88,ENE,73,0.0,0.0,97,0.01,,,0.18,meteohub,2013-01-16 23:12:00,
2013-01-16 18:17:00,33.8,33.1,29.88,ENE,74,0.0,0.0,97,0.01,,,0.18,meteohub,2013-01-16 23:17:00,
2013-01-16 18:22:00,33.8,33.1,29.88,ENE,73,0.0,0.0,97,0.01,,,0.18,meteohub,2013-01-16 23:22:00,
2013-01-16 18:27:00,33.6,32.9,29.88,ENE,74,0.0,0.0,97,0.01,,,0.18,meteohub,2013-01-16 23:27:00,
2013-01-16 18:32:00,33.8,33.1,29.88,ENE,70,0.0,0.0,97,0.01,,,0.18,meteohub,2013-01-16 23:32:00,
2013-01-16 18:37:00,33.8,33.1,29.87,ENE,70,0.0,0.0,97,0.01,,,0.18,meteohub,2013-01-16 23:37:00,
2013-01-16 18:42:00,34.0,33.3,29.88,ENE,70,0.0,0.0,97,0.00,,,0.18,meteohub,2013-01-16 23:42:00,
2013-01-16 18:47:00,33.8,33.1,29.88,ENE,69,0.0,0.0,97,0.00,,,0.18,meteohub,2013-01-16 23:47:00,
2013-01-16 18:52:00,34.0,33.3,29.88,ENE,70,0.0,0.0,97,0.00,,,0.18,meteohub,2013-01-16 23:52:00,
2013-01-16 18:57:00,34.0,33.3,29.88,ENE,68,0.0,0.0,97,0.01,,,0.19,meteohub,2013-01-16 23:57:00,
2013-01-16 19:02:00,34.0,33.3,29.88,ENE,70,0.0,0.0,97,0.01,,,0.19,meteohub,2013-01-17 00:02:00,
2013-01-16 19:07:00,34.0,33.3,29.88,ENE,68,0.0,0.0,97,0.01,,,0.19,meteohub,2013-01-17 00:07:00,
2013-01-16 19:12:00,34.0,33.3,29.88,ENE,70,0.0,0.0,97,0.01,,,0.19,meteohub,2013-01-17 00:12:00,
2013-01-16 19:17:00,34.0,33.3,29.89,ENE,70,0.0,0.0,97,0.01,,,0.19,meteohub,2013-01-17 00:17:00,
2013-01-16 19:22:00,34.0,33.3,29.89,ENE,68,0.0,0.0,97,0.01,,,0.19,meteohub,2013-01-17 00:22:00,
2013-01-16 19:27:00,34.2,33.4,29.88,ENE,70,0.0,0.0,97,0.01,,,0.19,meteohub,2013-01-17 00:27:00,
2013-01-16 19:32:00,34.3,33.6,29.88,WSW,256,0.0,0.0,97,0.01,,,0.19,meteohub,2013-01-17 00:32:00,
2013-01-16 19:37:00,34.3,33.6,29.88,WSW,255,0.0,0.0,97,0.01,,,0.19,meteohub,2013-01-17 00:37:00,
2013-01-16 19:42:00,34.3,33.6,29.89,WSW,252,0.0,0.0,97,0.01,,,0.19,meteohub,2013-01-17 00:42:00,
2013-01-16 19:47:00,34.3,33.6,29.89,WSW,252,0.0,0.0,97,0.01,,,0.19,meteohub,2013-01-17 00:47:00,
2013-01-16 19:52:00,34.5,33.8,29.89,WSW,252,0.0,0.0,97,0.00,,,0.19,meteohub,2013-01-17 00:52:00,
2013-01-16 19:57:00,34.5,33.8,29.89,WSW,253,0.0,0.0,97,0.00,,,0.19,meteohub,2013-01-17 00:57:00,
2013-01-16 20:02:00,34.5,33.8,29.88,SW,229,0.0,0.0,97,0.01,,,0.20,meteohub,2013-01-17 01:02:00,
2013-01-16 20:07:00,34.5,33.8,29.88,ESE,110,0.0,0.0,97,0.01,,,0.20,meteohub,2013-01-17 01:07:00,
2013-01-16 20:12:00,34.5,33.8,29.89,WSW,242,0.0,0.0,97,0.01,,,0.20,meteohub,2013-01-17 01:12:00,
2013-01-16 20:17:00,34.5,33.8,29.88,WSW,245,0.0,0.0,97,0.01,,,0.20,meteohub,2013-01-17 01:17:00,
2013-01-16 20:22:00,34.5,33.8,29.89,SW,233,0.0,0.0,97,0.01,,,0.20,meteohub,2013-01-17 01:22:00,
2013-01-16 20:27:00,34.5,33.8,29.89,West,274,0.0,0.0,97,0.01,,,0.20,meteohub,2013-01-17 01:27:00,
2013-01-16 20:32:00,34.5,33.8,29.89,WSW,245,0.0,0.0,97,0.01,,,0.20,meteohub,2013-01-17 01:32:00,
2013-01-16 20:37:00,34.5,33.8,29.89,WSW,250,0.0,1.0,97,0.01,,,0.20,meteohub,2013-01-17 01:37:00,
2013-01-16 20:42:00,34.5,33.8,29.89,WSW,250,0.0,3.0,97,0.01,,,0.20,meteohub,2013-01-17 01:42:00,
2013-01-16 20:47:00,34.5,33.8,29.89,WSW,250,0.0,3.0,97,0.01,,,0.20,meteohub,2013-01-17 01:47:00,
2013-01-16 20:52:00,34.3,33.6,29.90,West,262,0.0,1.0,97,0.01,,,0.20,meteohub,2013-01-17 01:52:00,
2013-01-16 20:57:00,34.5,33.8,29.90,WSW,248,1.0,1.0,97,0.01,,,0.20,meteohub,2013-01-17 01:57:00,
2013-01-16 21:02:00,34.5,33.8,29.90,WSW,242,0.0,2.0,97,0.01,,,0.21,meteohub,2013-01-17 02:02:00,
2013-01-16 21:07:00,34.5,33.8,29.90,WSW,257,0.0,2.0,97,0.01,,,0.21,meteohub,2013-01-17 02:07:00,
2013-01-16 21:12:00,34.5,33.8,29.90,WSW,253,0.0,2.0,97,0.01,,,0.21,meteohub,2013-01-17 02:12:00,
2013-01-16 21:17:00,34.5,33.8,29.89,West,266,0.0,1.0,97,0.01,,,0.21,meteohub,2013-01-17 02:17:00,
2013-01-16 21:22:00,34.5,33.8,29.89,WSW,246,1.0,1.0,97,0.01,,,0.21,meteohub,2013-01-17 02:22:00,
2013-01-16 21:27:00,34.5,33.8,29.90,SW,235,0.0,2.0,97,0.01,,,0.21,meteohub,2013-01-17 02:27:00,
2013-01-16 21:32:00,34.5,33.8,29.89,WSW,237,0.0,2.0,97,0.01,,,0.21,meteohub,2013-01-17 02:32:00,
2013-01-16 21:37:00,34.5,33.8,29.89,WSW,239,0.0,2.0,97,0.01,,,0.21,meteohub,2013-01-17 02:37:00,
2013-01-16 21:42:00,34.5,33.8,29.89,West,263,0.0,2.0,97,0.01,,,0.21,meteohub,2013-01-17 02:42:00,
2013-01-16 21:47:00,34.3,33.6,29.89,WSW,252,0.0,1.0,97,0.01,,,0.21,meteohub,2013-01-17 02:47:00,
2013-01-16 21:52:00,34.3,33.6,29.89,WSW,252,0.0,1.0,97,0.01,,,0.21,meteohub,2013-01-17 02:52:00,
2013-01-16 21:57:00,34.3,33.6,29.89,WSW,252,0.0,1.0,97,0.01,,,0.21,meteohub,2013-01-17 02:57:00,
2013-01-16 22:02:00,34.3,33.6,29.88,WSW,252,0.0,0.0,97,0.00,,,0.21,meteohub,2013-01-17 03:02:00,
2013-01-16 22:07:00,34.3,33.6,29.89,WSW,246,0.0,0.0,97,0.00,,,0.21,meteohub,2013-01-17 03:07:00,
2013-01-16 22:12:00,34.3,33.6,29.89,WSW,246,0.0,0.0,97,0.00,,,0.21,meteohub,2013-01-17 03:12:00,
2013-01-16 22:17:00,34.3,33.6,29.88,WSW,246,0.0,0.0,97,0.00,,,0.21,meteohub,2013-01-17 03:17:00,
2013-01-16 22:22:00,34.2,33.4,29.88,WSW,247,0.0,0.0,97,0.00,,,0.21,meteohub,2013-01-17 03:22:00,
2013-01-16 22:27:00,34.2,33.4,29.88,WSW,246,0.0,0.0,97,0.00,,,0.21,meteohub,2013-01-17 03:27:00,
2013-01-16 22:32:00,34.0,33.3,29.88,WSW,246,0.0,0.0,97,0.00,,,0.21,meteohub,2013-01-17 03:32:00,
2013-01-16 22:37:00,34.0,33.3,29.88,WSW,246,0.0,0.0,97,0.00,,,0.21,meteohub,2013-01-17 03:37:00,
2013-01-16 22:42:00,34.0,33.3,29.88,WSW,247,0.0,0.0,97,0.00,,,0.21,meteohub,2013-01-17 03:42:00,
2013-01-16 22:47:00,33.8,33.1,29.88,WSW,246,0.0,0.0,97,0.00,,,0.21,meteohub,2013-01-17 03:47:00,
2013-01-16 22:52:00,33.6,32.9,29.89,WSW,246,0.0,0.0,97,0.00,,,0.21,meteohub,2013-01-17 03:52:00,
2013-01-16 22:57:00,33.6,32.9,29.89,WSW,247,0.0,0.0,97,0.00,,,0.21,meteohub,2013-01-17 03:57:00,
2013-01-16 23:02:00,33.4,32.7,29.89,WSW,247,0.0,0.0,97,0.00,,,0.21,meteohub,2013-01-17 04:02:00,
2013-01-16 23:07:00,33.4,32.7,29.90,WSW,246,0.0,0.0,97,0.00,,,0.21,meteohub,2013-01-17 04:07:00,
2013-01-16 23:12:00,33.4,32.7,29.89,WSW,246,0.0,0.0,97,0.00,,,0.21,meteohub,2013-01-17 04:12:00,
2013-01-16 23:17:00,33.3,32.5,29.89,WSW,246,0.0,0.0,97,0.00,,,0.21,meteohub,2013-01-17 04:17:00,
2013-01-16 23:22:00,33.3,32.5,29.90,WSW,246,0.0,0.0,97,0.00,,,0.21,meteohub,2013-01-17 04:22:00,
2013-01-16 23:27:00,33.3,32.5,29.90,WSW,246,0.0,0.0,97,0.00,,,0.21,meteohub,2013-01-17 04:27:00,
2013-01-16 23:32:00,33.4,32.7,29.90,WSW,246,0.0,0.0,97,0.00,,,0.21,meteohub,2013-01-17 04:32:00,
2013-01-16 23:37:00,33.4,32.7,29.89,WSW,246,0.0,0.0,97,0.00,,,0.21,meteohub,2013-01-17 04:37:00,
2013-01-16 23:42:00,33.6,32.9,29.90,WSW,246,0.0,0.0,97,0.00,,,0.21,meteohub,2013-01-17 04:42:00,
2013-01-16 23:47:00,33.8,33.1,29.90,West,266,0.0,0.0,97,0.00,,,0.21,meteohub,2013-01-17 04:47:00,
2013-01-16 23:52:00,34.0,33.3,29.88,West,266,0.0,0.0,97,0.00,,,0.21,meteohub,2013-01-17 04:52:00,
2013-01-16 23:57:00,34.2,33.4,29.91,West,262,0.0,0.0,97,0.00,,,0.21,meteohub,2013-01-17 04:57:00,